Time;durP1;ratioP1;P1;durP2;ratioP2;P2;SDS_P1;SDS_P2;PMS_P1;PMS_P2;Temp;Humidity;BMP_temperature;BMP_pressure;BME280_temperature;BME280_humidity;BME280_pressure;Samples;Min_cycle;Max_cycle;Signal;HPM_P1;HPM_P2
2024/03/29 01:45:12;;;;;;;;;;;;;;;12.41;66.32;99541.41;5053459;27;96756;-71
2024/03/29 01:47:39;;;;;;;;;;;;;;;12.34;66.72;99546.22;5054099;27;96899;-71
2024/03/29 01:50:06;;;;;;;;;;;;;;;12.46;66.33;99544.66;5053872;27;97942;-72
2024/03/29 01:52:32;;;;;;;;;;;;;;;12.27;66.97;99533.50;5054246;27;101998;-72
2024/03/29 01:55:00;;;;;;;;;;;;;;;12.34;66.85;99540.94;5053918;27;96764;-71
2024/03/29 01:57:27;;;;;;;;;;;;;;;12.37;66.62;99548.72;5054227;27;96817;-72
2024/03/29 01:59:53;;;;;;;;;;;;;;;12.40;66.23;99544.19;5053892;27;101742;-72
2024/03/29 02:02:19;;;;;;;;;;;;;;;12.40;65.98;99547.69;5053280;27;97459;-70
2024/03/29 02:04:46;;;;;;;;;;;;;;;12.28;66.24;99551.91;5054480;27;96766;-71
2024/03/29 02:07:13;;;;;;;;;;;;;;;12.18;66.67;99548.13;5055135;27;96766;-71
2024/03/29 02:09:39;;;;;;;;;;;;;;;12.05;66.94;99548.97;5048492;27;99197;-71
2024/03/29 02:12:07;;;;;;;;;;;;;;;12.05;66.86;99547.19;5054012;27;97426;-71
2024/03/29 02:14:33;;;;;;;;;;;;;;;12.14;66.49;99554.53;5054072;27;96814;-72
2024/03/29 02:17:00;;;;;;;;;;;;;;;12.12;66.05;99560.91;5054690;27;97186;-71
2024/03/29 02:19:26;;;;;;;;;;;;;;;11.99;66.08;99552.84;5052203;27;99133;-72
2024/03/29 02:21:56;;;;;;;;;;;;;;;11.95;65.86;99556.59;5053784;27;100996;-72
2024/03/29 02:24:24;;;;;;;;;;;;;;;12.03;65.44;99557.00;5053572;27;96726;-72
2024/03/29 02:26:50;;;;;;;;;;;;;;;12.00;65.33;99556.34;5054470;27;96762;-72
2024/03/29 02:29:17;;;;;;;;;;;;;;;12.03;65.15;99551.69;5054925;27;98961;-72
2024/03/29 02:31:43;;;;;;;;;;;;;;;12.12;64.41;99563.53;5052466;27;98919;-71
2024/03/29 02:34:09;;;;;;;;;;;;;;;12.12;64.13;99564.41;5050066;27;96726;-71
2024/03/29 02:36:38;;;;;;;;;;;;;;;12.09;64.14;99566.38;5052705;27;97244;-72
2024/03/29 02:39:04;;;;;;;;;;;;;;;12.24;63.62;99570.75;5052638;27;99400;-72
2024/03/29 02:41:32;;;;;;;;;;;;;;;12.17;63.37;99570.25;5052824;27;98956;-71
2024/03/29 02:43:58;;;;;;;;;;;;;;;11.90;64.00;99567.47;5053272;27;96857;-70
2024/03/29 02:46:24;;;;;;;;;;;;;;;11.96;64.27;99576.84;5053114;27;97126;-72
2024/03/29 02:48:50;;;;;;;;;;;;;;;11.95;63.94;99575.13;5053343;27;97776;-72
2024/03/29 02:51:16;;;;;;;;;;;;;;;11.91;63.90;99577.13;5052335;27;101145;-73
2024/03/29 02:53:41;;;;;;;;;;;;;;;11.83;64.27;99575.84;5053510;27;98202;-71
2024/03/29 02:56:08;;;;;;;;;;;;;;;11.96;63.94;99577.69;5053265;27;98062;-73
2024/03/29 02:58:34;;;;;;;;;;;;;;;11.88;63.96;99568.53;5051619;27;99404;-71
2024/03/29 03:01:05;;;;;;;;;;;;;;;11.75;64.41;99567.53;5052716;27;98812;-72
2024/03/29 03:03:31;;;;;;;;;;;;;;;11.77;64.26;99574.44;5051774;27;96812;-71
2024/03/29 03:05:57;;;;;;;;;;;;;;;11.59;64.54;99583.41;5053782;27;97122;-70
2024/03/29 03:11:07;;;;;;;;;;;;;;;11.62;64.48;99592.97;5049907;27;98060;-72
2024/03/29 03:13:33;;;;;;;;;;;;;;;11.57;64.36;99599.38;5053285;27;96805;-71
2024/03/29 03:16:01;;;;;;;;;;;;;;;11.68;64.02;99603.22;5053184;27;96886;-71
2024/03/29 03:18:26;;;;;;;;;;;;;;;11.46;64.53;99603.59;5051196;27;99223;-71
2024/03/29 03:20:53;;;;;;;;;;;;;;;11.56;64.22;99599.47;5052392;27;100245;-71
2024/03/29 03:23:18;;;;;;;;;;;;;;;11.53;64.24;99600.50;5052901;27;96808;-72
2024/03/29 03:25:45;;;;;;;;;;;;;;;11.67;63.73;99591.78;5053830;27;96947;-73
2024/03/29 03:28:10;;;;;;;;;;;;;;;11.86;63.03;99596.88;5054717;27;99609;-71
2024/03/29 03:30:38;;;;;;;;;;;;;;;11.96;62.41;99612.09;5052186;27;100857;-71
2024/03/29 03:33:05;;;;;;;;;;;;;;;11.72;62.57;99621.47;5052676;27;96761;-71
2024/03/29 03:35:32;;;;;;;;;;;;;;;11.78;62.74;99615.84;5053372;27;96853;-74
2024/03/29 03:37:58;;;;;;;;;;;;;;;11.58;62.92;99614.31;5052808;27;97504;-70
2024/03/29 03:40:24;;;;;;;;;;;;;;;11.32;63.78;99608.78;5052238;27;99028;-71
2024/03/29 03:42:50;;;;;;;;;;;;;;;11.50;62.63;99618.31;5052747;27;98284;-71
2024/03/29 03:45:16;;;;;;;;;;;;;;;11.47;63.09;99621.16;5053111;27;96675;-72
2024/03/29 03:47:41;;;;;;;;;;;;;;;11.66;62.01;99621.81;5052240;27;99338;-73
2024/03/29 03:50:09;;;;;;;;;;;;;;;11.56;62.56;99616.19;5052946;27;97452;-73
2024/03/29 03:52:35;;;;;;;;;;;;;;;11.65;61.88;99608.66;5052722;27;96834;-72
2024/03/29 03:55:01;;;;;;;;;;;;;;;11.68;61.50;99611.16;5053392;27;97199;-71
2024/03/29 03:57:26;;;;;;;;;;;;;;;11.73;61.39;99602.00;5052242;27;100904;-72
2024/03/29 03:59:53;;;;;;;;;;;;;;;11.84;60.99;99585.50;5052145;27;100856;-71
2024/03/29 04:02:18;;;;;;;;;;;;;;;11.87;60.83;99580.06;5052338;27;97995;-72
2024/03/29 04:04:47;;;;;;;;;;;;;;;11.86;60.75;99589.78;5052671;27;97044;-70
2024/03/29 04:07:14;;;;;;;;;;;;;;;11.76;61.22;99585.94;5052165;27;96812;-70
2024/03/29 04:09:40;;;;;;;;;;;;;;;11.81;61.21;99588.34;5052934;27;97456;-71
2024/03/29 04:12:05;;;;;;;;;;;;;;;11.83;61.23;99591.75;5055724;27;96787;-71
2024/03/29 04:14:32;;;;;;;;;;;;;;;11.80;60.95;99597.22;5056422;27;96972;-71
2024/03/29 04:16:57;;;;;;;;;;;;;;;11.85;61.14;99603.97;5055920;27;102195;-71
2024/03/29 04:19:23;;;;;;;;;;;;;;;11.75;61.54;99599.31;5055280;27;99208;-71
2024/03/29 04:21:49;;;;;;;;;;;;;;;11.78;61.27;99583.22;5054846;27;97146;-72
2024/03/29 04:24:16;;;;;;;;;;;;;;;11.82;60.83;99605.91;5055826;27;96914;-72
2024/03/29 04:26:44;;;;;;;;;;;;;;;11.66;60.96;99591.84;5056601;27;101473;-72
2024/03/29 04:29:10;;;;;;;;;;;;;;;11.65;60.89;99595.44;5057692;27;100280;-70
2024/03/29 04:31:35;;;;;;;;;;;;;;;11.58;61.06;99603.72;5055343;27;96916;-70
2024/03/29 04:34:02;;;;;;;;;;;;;;;11.73;60.41;99604.66;5056313;27;98446;-71
2024/03/29 04:36:27;;;;;;;;;;;;;;;11.61;60.76;99592.13;5055523;27;99344;-70
2024/03/29 04:38:53;;;;;;;;;;;;;;;11.54;60.82;99594.28;5055221;27;100829;-71
2024/03/29 04:41:21;;;;;;;;;;;;;;;11.47;61.03;99590.28;5055514;27;96833;-71
2024/03/29 04:43:47;;;;;;;;;;;;;;;11.53;61.00;99599.66;5056088;27;96882;-70
2024/03/29 04:46:14;;;;;;;;;;;;;;;11.43;61.17;99596.66;5055372;27;101036;-71
2024/03/29 04:48:42;;;;;;;;;;;;;;;11.47;60.93;99589.41;5055888;27;99026;-71
2024/03/29 04:51:08;;;;;;;;;;;;;;;11.61;60.37;99591.28;5055271;27;97098;-71
2024/03/29 04:53:35;;;;;;;;;;;;;;;11.55;60.29;99581.91;5056454;27;96787;-72
2024/03/29 04:56:02;;;;;;;;;;;;;;;11.56;60.19;99588.88;5055143;27;98756;-71
2024/03/29 04:58:29;;;;;;;;;;;;;;;11.66;59.73;99598.00;5054946;27;99362;-70
2024/03/29 05:00:56;;;;;;;;;;;;;;;11.66;60.06;99594.50;5055349;27;97274;-71
2024/03/29 05:03:22;;;;;;;;;;;;;;;11.72;59.70;99586.19;5055748;27;98322;-71
2024/03/29 05:05:51;;;;;;;;;;;;;;;11.70;59.35;99575.69;5055372;27;99239;-70
2024/03/29 05:08:19;;;;;;;;;;;;;;;11.67;59.44;99582.97;5055337;27;99107;-72
2024/03/29 05:10:46;;;;;;;;;;;;;;;11.57;59.82;99609.09;5054766;27;96964;-71
2024/03/29 05:13:12;;;;;;;;;;;;;;;11.46;59.87;99604.44;5054904;27;96778;-71
2024/03/29 05:15:40;;;;;;;;;;;;;;;11.65;59.66;99598.09;5054780;27;98947;-71
2024/03/29 05:18:06;;;;;;;;;;;;;;;11.79;58.74;99606.09;5054141;27;98729;-69
2024/03/29 05:20:32;;;;;;;;;;;;;;;11.71;59.04;99606.50;5054877;27;96635;-72
2024/03/29 05:22:59;;;;;;;;;;;;;;;11.92;58.41;99601.81;5054139;27;96823;-71
2024/03/29 05:25:25;;;;;;;;;;;;;;;11.89;57.93;99607.25;5054696;27;102031;-72
2024/03/29 05:27:51;;;;;;;;;;;;;;;11.92;58.20;99612.38;5055030;27;98851;-71
2024/03/29 05:30:18;;;;;;;;;;;;;;;11.98;57.85;99617.31;5054333;27;97133;-71
2024/03/29 05:32:45;;;;;;;;;;;;;;;11.87;57.97;99619.75;5054666;27;96830;-71
2024/03/29 05:35:13;;;;;;;;;;;;;;;11.82;57.93;99627.09;5054301;27;99860;-72
2024/03/29 05:37:39;;;;;;;;;;;;;;;12.01;57.68;99619.81;5054697;27;98811;-71
2024/03/29 05:40:07;;;;;;;;;;;;;;;11.78;57.74;99614.97;5054509;27;96897;-71
2024/03/29 05:42:35;;;;;;;;;;;;;;;11.86;57.85;99596.88;5054698;27;97266;-71
2024/03/29 05:45:01;;;;;;;;;;;;;;;12.19;56.99;99589.56;5054568;27;98840;-71
2024/03/29 05:47:27;;;;;;;;;;;;;;;12.19;56.66;99594.88;5053925;27;99129;-71
2024/03/29 05:49:55;;;;;;;;;;;;;;;11.97;56.78;99599.72;5054789;27;96722;-71
2024/03/29 05:52:23;;;;;;;;;;;;;;;12.03;56.70;99595.84;5054794;27;96810;-71
2024/03/29 05:54:49;;;;;;;;;;;;;;;11.98;57.09;99596.13;5054584;27;98196;-71
2024/03/29 05:57:15;;;;;;;;;;;;;;;12.02;57.10;99612.69;5054704;27;98026;-71
2024/03/29 05:59:42;;;;;;;;;;;;;;;12.07;56.70;99608.84;5054026;27;97166;-71
2024/03/29 06:02:08;;;;;;;;;;;;;;;12.25;56.29;99617.47;5054156;27;96767;-71
2024/03/29 06:04:35;;;;;;;;;;;;;;;12.37;55.82;99616.72;5054310;27;98985;-71
2024/03/29 06:07:03;;;;;;;;;;;;;;;12.18;55.90;99611.69;5054558;27;99779;-72
2024/03/29 06:09:30;;;;;;;;;;;;;;;12.21;56.01;99624.75;5054492;27;96760;-71
2024/03/29 06:11:56;;;;;;;;;;;;;;;12.26;56.06;99621.84;5053602;27;96923;-71
2024/03/29 06:17:24;;;;;;;;;;;;;;;12.53;55.10;99640.50;5021625;27;97754;-72
2024/03/29 06:19:50;;;;;;;;;;;;;;;12.68;54.36;99637.75;5053976;27;96732;-73
2024/03/29 06:22:18;;;;;;;;;;;;;;;12.68;53.80;99635.09;5055206;27;98167;-72
2024/03/29 06:24:44;;;;;;;;;;;;;;;12.77;53.79;99639.00;5054606;27;98857;-73
2024/03/29 06:27:10;;;;;;;;;;;;;;;12.83;53.32;99641.25;5054930;27;98842;-73
2024/03/29 06:29:37;;;;;;;;;;;;;;;12.86;53.21;99657.00;5054934;27;96888;-74
2024/03/29 06:32:03;;;;;;;;;;;;;;;13.05;52.42;99651.41;5054455;27;96888;-72
2024/03/29 06:34:31;;;;;;;;;;;;;;;13.13;52.32;99651.78;5054565;27;99087;-72
2024/03/29 06:36:57;;;;;;;;;;;;;;;13.22;52.21;99655.66;5053889;27;102181;-73
2024/03/29 06:39:25;;;;;;;;;;;;;;;13.23;51.57;99650.25;5053988;27;96738;-73
2024/03/29 06:41:52;;;;;;;;;;;;;;;13.20;51.62;99657.53;5054488;27;97064;-73
2024/03/29 06:44:18;;;;;;;;;;;;;;;13.13;51.73;99655.28;5054582;27;97844;-70
2024/03/29 06:46:44;;;;;;;;;;;;;;;13.24;51.00;99653.75;5053062;27;98726;-73
2024/03/29 06:49:10;;;;;;;;;;;;;;;13.43;50.28;99660.44;5053503;27;96706;-73
2024/03/29 06:51:37;;;;;;;;;;;;;;;13.55;50.01;99680.03;5053475;27;97896;-74
2024/03/29 06:54:03;;;;;;;;;;;;;;;13.59;49.86;99684.19;5054037;27;99943;-74
2024/03/29 06:56:31;;;;;;;;;;;;;;;13.80;49.38;99677.50;5054059;27;99649;-74
2024/03/29 06:58:57;;;;;;;;;;;;;;;13.90;48.68;99675.94;5052361;27;97078;-73
2024/03/29 07:01:23;;;;;;;;;;;;;;;13.95;48.82;99696.88;5052303;27;96895;-73
2024/03/29 07:03:50;;;;;;;;;;;;;;;14.18;48.42;99692.69;5052166;27;98848;-74
2024/03/29 07:06:16;;;;;;;;;;;;;;;14.15;48.42;99690.25;5052620;27;97479;-74
2024/03/29 07:08:42;;;;;;;;;;;;;;;13.95;47.84;99671.19;5052266;27;96713;-74
2024/03/29 07:11:09;;;;;;;;;;;;;;;13.86;48.43;99673.56;5052120;27;97258;-75
2024/03/29 07:13:37;;;;;;;;;;;;;;;14.02;48.08;99670.75;5051745;27;101952;-74
2024/03/29 07:16:04;;;;;;;;;;;;;;;14.17;47.96;99699.81;5051948;27;99141;-74
2024/03/29 07:18:30;;;;;;;;;;;;;;;14.00;48.33;99692.09;5052492;27;97008;-74
2024/03/29 07:20:56;;;;;;;;;;;;;;;14.06;48.58;99712.09;5051388;27;96944;-75
2024/03/29 07:23:23;;;;;;;;;;;;;;;13.94;47.92;99714.63;5054211;27;99389;-73
2024/03/29 07:25:59;;;;;;;;;;;;;;;14.14;47.47;99737.22;5052714;27;97613;-74
2024/03/29 07:28:25;;;;;;;;;;;;;;;14.09;47.70;99730.50;5054285;27;96882;-74
2024/03/29 07:30:53;;;;;;;;;;;;;;;14.24;47.23;99734.81;5052118;27;96800;-73
2024/03/29 07:33:21;;;;;;;;;;;;;;;14.27;47.08;99726.63;5051916;27;96863;-75
2024/03/29 07:35:47;;;;;;;;;;;;;;;14.08;47.27;99726.13;5052395;27;99178;-74
2024/03/29 07:38:15;;;;;;;;;;;;;;;14.24;46.87;99726.84;5052243;27;96761;-74
2024/03/29 07:40:41;;;;;;;;;;;;;;;14.30;46.17;99735.25;5051594;27;96905;-73
2024/03/29 07:43:07;;;;;;;;;;;;;;;14.32;46.30;99746.63;5051938;27;99250;-74
2024/03/29 07:45:33;;;;;;;;;;;;;;;14.22;46.63;99745.53;5054300;27;97537;-74
2024/03/29 07:48:01;;;;;;;;;;;;;;;14.09;46.64;99735.81;5055530;27;97365;-74
2024/03/29 07:50:27;;;;;;;;;;;;;;;14.20;46.77;99733.28;5055901;27;97001;-73
2024/03/29 07:52:53;;;;;;;;;;;;;;;14.43;46.32;99743.28;5055010;27;99224;-73
2024/03/29 07:55:20;;;;;;;;;;;;;;;14.11;46.59;99739.22;5055960;27;102033;-74
2024/03/29 07:57:47;;;;;;;;;;;;;;;14.35;46.32;99742.91;5055826;27;96784;-73
2024/03/29 08:00:14;;;;;;;;;;;;;;;14.40;46.28;99747.94;5055685;27;96857;-74
2024/03/29 08:02:40;;;;;;;;;;;;;;;14.40;46.55;99753.25;5054439;27;98985;-73
2024/03/29 08:05:08;;;;;;;;;;;;;;;14.43;46.13;99763.69;5053101;27;101101;-73
2024/03/29 08:07:34;;;;;;;;;;;;;;;14.18;46.79;99769.72;5055641;27;96776;-73
2024/03/29 08:10:01;;;;;;;;;;;;;;;14.23;46.67;99775.63;5055147;27;97102;-73
2024/03/29 08:12:27;;;;;;;;;;;;;;;13.75;48.38;99769.88;5054905;27;98602;-73
2024/03/29 08:14:53;;;;;;;;;;;;;;;13.91;48.68;99778.53;5054755;27;99662;-73
2024/03/29 08:17:22;;;;;;;;;;;;;;;14.14;48.47;99762.91;5055204;27;96720;-74
2024/03/29 08:19:49;;;;;;;;;;;;;;;14.08;49.21;99756.22;5055340;27;96805;-74
2024/03/29 08:22:16;;;;;;;;;;;;;;;14.40;49.21;99758.56;5054421;27;98940;-74
2024/03/29 08:24:44;;;;;;;;;;;;;;;14.68;48.22;99767.25;5054891;27;99255;-74
2024/03/29 08:27:10;;;;;;;;;;;;;;;14.71;49.33;99758.22;5055139;27;96855;-73
2024/03/29 08:29:36;;;;;;;;;;;;;;;15.22;49.19;99743.13;5049904;27;97590;-73
2024/03/29 08:32:03;;;;;;;;;;;;;;;15.41;47.92;99732.88;5053499;27;97883;-73
2024/03/29 08:34:34;;;;;;;;;;;;;;;15.46;47.46;99712.09;5054928;27;98769;-73
2024/03/29 08:37:00;;;;;;;;;;;;;;;15.69;47.45;99721.13;5053591;27;96775;-75
2024/03/29 08:39:28;;;;;;;;;;;;;;;15.97;48.07;99700.44;5054534;27;98502;-74
2024/03/29 08:41:54;;;;;;;;;;;;;;;16.10;47.68;99704.75;5054129;27;97638;-72
2024/03/29 08:44:20;;;;;;;;;;;;;;;16.32;45.69;99696.84;5054864;27;101694;-74
2024/03/29 08:46:47;;;;;;;;;;;;;;;16.49;46.15;99711.56;5054595;27;96709;-73
2024/03/29 08:49:13;;;;;;;;;;;;;;;16.59;45.29;99717.06;5055070;27;97097;-73
2024/03/29 08:51:39;;;;;;;;;;;;;;;16.78;45.31;99730.72;5053376;27;98959;-74
2024/03/29 08:54:05;;;;;;;;;;;;;;;16.74;44.61;99722.09;5054037;27;98302;-74
2024/03/29 08:56:34;;;;;;;;;;;;;;;16.95;44.85;99719.56;5053226;27;96736;-73
2024/03/29 08:59:03;;;;;;;;;;;;;;;17.18;44.38;99716.94;5054617;27;99825;-74
2024/03/29 09:01:29;;;;;;;;;;;;;;;16.96;44.49;99720.44;5053425;27;97704;-75
2024/03/29 09:03:55;;;;;;;;;;;;;;;17.30;43.13;99714.16;5054339;27;99601;-74
2024/03/29 09:06:21;;;;;;;;;;;;;;;17.34;43.62;99723.59;5054501;27;97555;-75
2024/03/29 09:08:47;;;;;;;;;;;;;;;17.74;42.38;99729.28;5054856;27;96745;-74
2024/03/29 09:11:14;;;;;;;;;;;;;;;17.74;41.70;99729.28;5054071;27;99648;-74
2024/03/29 09:13:41;;;;;;;;;;;;;;;17.64;41.53;99735.53;5054147;27;98789;-74
2024/03/29 09:16:08;;;;;;;;;;;;;;;17.53;42.21;99736.31;5053786;27;97059;-74
2024/03/29 09:18:34;;;;;;;;;;;;;;;17.37;41.94;99733.19;5054484;27;96809;-74
2024/03/29 09:21:00;;;;;;;;;;;;;;;17.35;41.76;99727.13;5053339;27;97546;-74
2024/03/29 09:23:28;;;;;;;;;;;;;;;17.50;41.41;99731.25;5054634;27;100880;-73
2024/03/29 09:25:54;;;;;;;;;;;;;;;17.53;41.10;99736.31;5053732;27;96727;-73
2024/03/29 09:28:21;;;;;;;;;;;;;;;17.47;41.46;99737.69;5055539;27;96966;-73
2024/03/29 09:30:49;;;;;;;;;;;;;;;17.47;41.93;99744.84;5053491;27;99056;-74
2024/03/29 09:33:15;;;;;;;;;;;;;;;17.40;42.15;99751.63;5054272;27;101047;-73
2024/03/29 09:35:42;;;;;;;;;;;;;;;17.68;42.08;99747.66;5053972;27;96756;-73
2024/03/29 09:38:08;;;;;;;;;;;;;;;17.31;41.20;99741.69;5053885;27;96818;-74
2024/03/29 09:40:34;;;;;;;;;;;;;;;17.57;40.93;99756.50;5052559;27;100959;-75
2024/03/29 09:43:03;;;;;;;;;;;;;;;17.88;40.63;99762.91;5053152;27;99175;-73
2024/03/29 09:45:30;;;;;;;;;;;;;;;17.61;40.75;99759.78;5054268;27;96860;-74
2024/03/29 09:47:58;;;;;;;;;;;;;;;17.67;40.55;99753.97;5053470;27;96815;-73
2024/03/29 09:50:25;;;;;;;;;;;;;;;17.47;40.39;99753.69;5053391;27;99213;-74
2024/03/29 09:52:51;;;;;;;;;;;;;;;17.66;40.63;99749.56;5052846;27;99250;-73
2024/03/29 09:55:19;;;;;;;;;;;;;;;17.61;39.38;99747.28;5053651;27;96613;-74
2024/03/29 09:57:46;;;;;;;;;;;;;;;17.47;39.57;99744.84;5054355;27;97152;-73
2024/03/29 10:00:13;;;;;;;;;;;;;;;17.34;39.69;99758.31;5052785;27;98852;-74
2024/03/29 10:02:40;;;;;;;;;;;;;;;17.21;40.10;99751.38;5053080;27;98689;-73
2024/03/29 10:05:09;;;;;;;;;;;;;;;17.31;39.94;99741.69;5052983;27;96867;-74
2024/03/29 10:07:36;;;;;;;;;;;;;;;17.16;40.96;99754.41;5052965;27;96962;-73
2024/03/29 10:10:03;;;;;;;;;;;;;;;16.87;41.33;99743.31;5052899;27;98884;-73
2024/03/29 10:12:29;;;;;;;;;;;;;;;16.81;41.31;99732.28;5052714;27;98703;-73
2024/03/29 10:15:05;;;;;;;;;;;;;;;16.99;41.71;99739.75;5053296;27;97107;-74
2024/03/29 10:17:31;;;;;;;;;;;;;;;16.91;41.94;99736.81;5053602;27;96928;-73
2024/03/29 10:20:00;;;;;;;;;;;;;;;17.10;43.13;99739.75;5052438;27;98923;-73
2024/03/29 10:22:27;;;;;;;;;;;;;;;16.77;43.73;99715.69;5054043;27;99186;-73
2024/03/29 10:24:53;;;;;;;;;;;;;;;16.65;45.03;99703.28;5053268;27;96746;-73
2024/03/29 10:27:20;;;;;;;;;;;;;;;16.56;45.14;99702.13;5054382;27;96805;-73
2024/03/29 10:29:46;;;;;;;;;;;;;;;16.42;46.24;99709.47;5052327;27;99288;-74
2024/03/29 10:32:12;;;;;;;;;;;;;;;16.57;46.39;99708.31;5052334;27;97508;-74
2024/03/29 10:34:38;;;;;;;;;;;;;;;16.65;46.75;99706.81;5053240;27;96808;-74
2024/03/29 10:37:05;;;;;;;;;;;;;;;16.33;47.71;99698.56;5053231;27;98851;-74
2024/03/29 10:39:33;;;;;;;;;;;;;;;16.47;47.60;99710.00;5052370;27;99200;-73
2024/03/29 10:42:00;;;;;;;;;;;;;;;16.78;47.71;99709.38;5051844;27;99310;-74
2024/03/29 10:44:27;;;;;;;;;;;;;;;16.51;47.75;99704.31;5053660;27;96981;-70
2024/03/29 10:46:54;;;;;;;;;;;;;;;16.37;48.82;99704.50;5050193;27;96738;-71
2024/03/29 10:49:21;;;;;;;;;;;;;;;16.65;48.61;99698.81;5052966;27;97966;-71
2024/03/29 10:51:47;;;;;;;;;;;;;;;16.67;49.34;99696.84;5051563;27;99102;-71
2024/03/29 10:54:14;;;;;;;;;;;;;;;17.07;48.54;99697.25;5052166;27;96824;-72
2024/03/29 10:56:44;;;;;;;;;;;;;;;17.04;49.83;99702.84;5053197;27;97058;-71
2024/03/29 10:59:13;;;;;;;;;;;;;;;17.31;48.33;99693.63;5052792;27;99206;-72
2024/03/29 11:01:41;;;;;;;;;;;;;;;17.48;48.66;99693.13;5051587;27;100439;-71
2024/03/29 11:04:12;;;;;;;;;;;;;;;17.53;48.66;99686.44;5052771;27;96812;-71
2024/03/29 11:06:40;;;;;;;;;;;;;;;17.37;48.69;99683.31;5052839;27;96757;-71
2024/03/29 11:09:11;;;;;;;;;;;;;;;17.49;48.46;99676.13;5052734;27;101013;-71
2024/03/29 11:11:39;;;;;;;;;;;;;;;17.66;48.11;99662.28;5051733;27;98054;-71
2024/03/29 11:14:08;;;;;;;;;;;;;;;17.76;48.31;99663.22;5052708;27;97962;-72
2024/03/29 11:16:34;;;;;;;;;;;;;;;17.99;47.70;99652.44;5052967;27;96879;-71
2024/03/29 11:19:04;;;;;;;;;;;;;;;18.00;46.67;99659.50;5051063;27;97628;-70
2024/03/29 11:21:32;;;;;;;;;;;;;;;17.89;46.39;99647.88;5044525;27;97551;-70
2024/03/29 11:24:01;;;;;;;;;;;;;;;17.47;47.41;99656.69;5052495;27;96857;-70
2024/03/29 11:26:28;;;;;;;;;;;;;;;17.40;48.20;99636.81;5052657;27;96766;-70
2024/03/29 11:28:55;;;;;;;;;;;;;;;17.25;48.00;99630.06;5052282;27;98945;-70
2024/03/29 11:31:24;;;;;;;;;;;;;;;17.42;48.35;99619.69;5051384;27;99208;-71
2024/03/29 11:33:52;;;;;;;;;;;;;;;17.92;47.01;99626.25;5052594;27;96706;-71
2024/03/29 11:36:19;;;;;;;;;;;;;;;17.92;46.87;99620.03;5053161;27;97137;-70
2024/03/29 11:38:46;;;;;;;;;;;;;;;17.51;47.40;99628.78;5051550;27;101044;-70
2024/03/29 11:41:13;;;;;;;;;;;;;;;17.42;47.65;99630.38;5050956;27;99313;-71
2024/03/29 11:43:39;;;;;;;;;;;;;;;17.48;47.14;99627.22;5051922;27;96933;-71
2024/03/29 11:46:06;;;;;;;;;;;;;;;17.39;47.54;99621.78;5052353;27;96812;-71
2024/03/29 11:48:35;;;;;;;;;;;;;;;17.30;47.86;99618.03;5052404;27;99348;-71
2024/03/29 11:51:02;;;;;;;;;;;;;;;17.54;47.71;99616.03;5051126;27;98776;-71
2024/03/29 11:53:29;;;;;;;;;;;;;;;17.61;47.17;99624.41;5052449;27;96737;-71
2024/03/29 11:55:55;;;;;;;;;;;;;;;17.80;46.54;99627.25;5052295;27;96808;-71
2024/03/29 11:58:22;;;;;;;;;;;;;;;17.53;47.12;99630.34;5052443;27;99160;-71
2024/03/29 12:00:48;;;;;;;;;;;;;;;17.50;47.80;99646.63;5051648;27;98981;-71
2024/03/29 12:03:14;;;;;;;;;;;;;;;17.38;48.97;99638.78;5052222;27;97107;-71
2024/03/29 12:05:43;;;;;;;;;;;;;;;17.16;49.22;99626.28;5052071;27;96990;-70
2024/03/29 12:08:10;;;;;;;;;;;;;;;17.06;49.35;99644.03;5051361;27;99224;-71
2024/03/29 12:10:37;;;;;;;;;;;;;;;17.02;49.00;99646.06;5051375;27;99497;-71
2024/03/29 12:13:06;;;;;;;;;;;;;;;17.00;50.72;99641.84;5051232;27;96739;-73
2024/03/29 12:15:38;;;;;;;;;;;;;;;16.76;50.69;99639.28;5052017;27;96696;-73
2024/03/29 12:18:05;;;;;;;;;;;;;;;17.17;50.82;99649.34;5051670;27;102487;-74
2024/03/29 12:20:31;;;;;;;;;;;;;;;17.17;50.72;99635.16;5051954;27;97276;-73
2024/03/29 12:23:01;;;;;;;;;;;;;;;17.19;50.91;99634.06;5051417;27;96862;-74
2024/03/29 12:25:28;;;;;;;;;;;;;;;16.83;50.65;99632.50;5052546;27;97530;-74
2024/03/29 12:27:54;;;;;;;;;;;;;;;17.19;50.53;99628.72;5053820;27;99210;-74
2024/03/29 12:30:21;;;;;;;;;;;;;;;17.29;50.06;99615.47;5051279;27;98867;-74
2024/03/29 12:32:48;;;;;;;;;;;;;;;17.22;49.86;99595.59;5054111;27;96745;-74
2024/03/29 12:35:15;;;;;;;;;;;;;;;17.74;48.22;99586.84;5054926;27;96888;-73
2024/03/29 12:37:48;;;;;;;;;;;;;;;18.04;46.51;99586.97;5054488;27;98742;-74
2024/03/29 12:40:18;;;;;;;;;;;;;;;18.39;44.92;99575.91;5053860;27;98828;-73
2024/03/29 12:42:44;;;;;;;;;;;;;;;18.70;43.39;99579.50;5054645;27;96763;-74
2024/03/29 12:45:11;;;;;;;;;;;;;;;18.87;42.47;99581.53;5055009;27;96913;-74
2024/03/29 12:47:37;;;;;;;;;;;;;;;19.32;42.15;99579.28;5054767;27;101782;-72
2024/03/29 12:50:04;;;;;;;;;;;;;;;19.60;40.54;99579.50;5054836;27;98723;-74
2024/03/29 12:52:37;;;;;;;;;;;;;;;19.62;40.58;99580.22;5053504;27;96767;-73
2024/03/29 12:55:05;;;;;;;;;;;;;;;19.93;39.82;99576.41;5051655;27;97027;-74
2024/03/29 12:57:33;;;;;;;;;;;;;;;20.34;39.23;99590.50;5048343;27;99433;-74
2024/03/29 12:59:59;;;;;;;;;;;;;;;19.81;39.42;99593.63;5054430;27;99020;-74
2024/03/29 13:02:26;;;;;;;;;;;;;;;19.65;39.96;99591.47;5055541;27;96695;-70
2024/03/29 13:04:52;;;;;;;;;;;;;;;19.65;39.21;99588.81;5054897;27;96817;-71
2024/03/29 13:07:19;;;;;;;;;;;;;;;19.52;39.06;99593.59;5054187;27;99069;-72
2024/03/29 13:09:45;;;;;;;;;;;;;;;19.36;39.48;99587.91;5054167;27;97487;-72
2024/03/29 13:12:12;;;;;;;;;;;;;;;19.17;39.91;99588.66;5054608;27;96644;-71
2024/03/29 13:14:39;;;;;;;;;;;;;;;18.84;38.94;99581.78;5055188;27;96833;-74
2024/03/29 13:17:06;;;;;;;;;;;;;;;18.63;39.75;99570.31;5054184;27;97968;-71
2024/03/29 13:19:33;;;;;;;;;;;;;;;18.43;40.02;99572.00;5051061;27;98681;-71
2024/03/29 13:21:59;;;;;;;;;;;;;;;18.46;39.74;99573.56;5053775;27;96751;-71
2024/03/29 13:24:25;;;;;;;;;;;;;;;18.50;39.33;99567.84;5054466;27;96802;-71
2024/03/29 13:26:52;;;;;;;;;;;;;;;18.54;39.03;99571.94;5053960;27;98904;-71
2024/03/29 13:29:18;;;;;;;;;;;;;;;18.73;38.40;99565.00;5054030;27;98669;-72
2024/03/29 13:31:46;;;;;;;;;;;;;;;19.14;37.93;99564.00;5053717;27;96765;-71
2024/03/29 13:34:17;;;;;;;;;;;;;;;18.98;37.98;99562.69;5054561;27;97078;-73
2024/03/29 13:36:44;;;;;;;;;;;;;;;19.08;37.70;99549.34;5054034;27;98383;-71
2024/03/29 13:39:13;;;;;;;;;;;;;;;19.82;36.81;99542.53;5053349;27;99150;-71
2024/03/29 13:41:40;;;;;;;;;;;;;;;20.01;35.08;99554.25;5053447;27;96694;-73
2024/03/29 13:44:06;;;;;;;;;;;;;;;21.01;33.19;99540.06;5053422;27;96923;-73
2024/03/29 13:46:33;;;;;;;;;;;;;;;21.58;32.52;99559.56;5053898;27;99466;-72
2024/03/29 13:49:01;;;;;;;;;;;;;;;21.19;31.96;99558.13;5053669;27;98820;-71
2024/03/29 13:51:28;;;;;;;;;;;;;;;20.79;32.36;99547.69;5053674;27;97248;-71
2024/03/29 13:53:54;;;;;;;;;;;;;;;21.41;31.38;99552.31;5054838;27;96798;-72
2024/03/29 13:56:21;;;;;;;;;;;;;;;21.51;31.18;99544.19;5054417;27;101253;-70
2024/03/29 13:58:47;;;;;;;;;;;;;;;21.14;31.86;99520.06;5053525;27;99109;-72
2024/03/29 14:01:14;;;;;;;;;;;;;;;21.00;32.08;99529.50;5053391;27;96684;-70
2024/03/29 14:03:40;;;;;;;;;;;;;;;23.18;29.29;99527.66;5054471;27;96877;-71
2024/03/29 14:06:08;;;;;;;;;;;;;;;23.94;27.30;99535.56;5053620;27;99562;-72
2024/03/29 14:08:35;;;;;;;;;;;;;;;22.94;28.42;99527.59;5053751;27;101667;-71
2024/03/29 14:11:02;;;;;;;;;;;;;;;23.14;28.37;99533.53;5052740;27;96857;-75
2024/03/29 14:13:28;;;;;;;;;;;;;;;23.65;27.65;99548.69;5053750;27;96973;-73
2024/03/29 14:15:55;;;;;;;;;;;;;;;23.55;28.03;99537.22;5054105;27;97582;-73
2024/03/29 14:18:21;;;;;;;;;;;;;;;23.12;28.14;99530.16;5053550;27;98502;-73
2024/03/29 14:20:47;;;;;;;;;;;;;;;22.41;29.26;99530.47;5053051;27;96763;-74
2024/03/29 14:23:19;;;;;;;;;;;;;;;21.46;30.81;99545.47;5053402;27;96913;-73
2024/03/29 14:25:45;;;;;;;;;;;;;;;21.05;31.82;99541.50;5047375;27;101980;-74
2024/03/29 14:28:11;;;;;;;;;;;;;;;21.04;32.17;99536.25;5054183;27;97541;-75
2024/03/29 14:30:38;;;;;;;;;;;;;;;21.05;32.46;99525.38;5053503;27;96791;-74
2024/03/29 14:33:06;;;;;;;;;;;;;;;21.30;32.24;99531.03;5053079;27;96884;-74